Terminal Aerodrome Forecast
Issued by NWS Cleveland, OH

Home | Current Version | Previous Version | Text Only | Print | Product List | Glossary On
Versions: 1 2 3 4 5 6 7 8 9 10 11 12 13 14 15 16 17 18 19
000
FTUS41 KCLE 271000 AAA
TAFCAK
TAF AMD
KCAK 271011Z 2710/2806 21007KT P6SM OVC040
     FM271400 20010KT P6SM OVC250
     FM272300 21010KT 4SM -RA BR OVC015
     FM280300 21010KT 4SM -RA BR OVC005=

USA.gov is the U.S. government's official web portal to all federal, state and local government web resources and services.